Time;durP1;ratioP1;P1;durP2;ratioP2;P2;SDS_P1;SDS_P2;PMS_P1;PMS_P2;Temp;Humidity;BMP_temperature;BMP_pressure;BME280_temperature;BME280_humidity;BME280_pressure;Samples;Min_cycle;Max_cycle;Signal;HPM_P1;HPM_P2
2021/06/17 00:01:33;;;;;;;9.73;8.70;;;26.30;61.40;;;;;;5115715;28;20454;-74
2021/06/17 00:04:00;;;;;;;9.07;8.27;;;26.20;61.30;;;;;;5115971;28;20443;-74
2021/06/17 00:06:26;;;;;;;9.07;8.27;;;26.20;61.60;;;;;;5115288;28;20470;-74
2021/06/17 00:08:53;;;;;;;9.20;8.40;;;26.20;62.00;;;;;;5115415;28;20434;-74
2021/06/17 00:11:21;;;;;;;9.33;8.63;;;26.10;62.20;;;;;;5116437;28;20773;-74
2021/06/17 00:13:48;;;;;;;9.70;8.80;;;26.10;62.30;;;;;;5115293;28;20434;-74
2021/06/17 00:16:15;;;;;;;10.77;10.07;;;26.10;62.60;;;;;;5115407;28;20471;-74
2021/06/17 00:18:41;;;;;;;10.50;9.30;;;26.00;62.60;;;;;;5115155;28;20466;-74
2021/06/17 00:21:08;;;;;;;15.07;8.73;;;26.00;62.70;;;;;;5114514;28;20439;-74
2021/06/17 00:23:35;;;;;;;8.80;8.00;;;26.00;62.60;;;;;;5115298;28;20475;-74
2021/06/17 00:26:04;;;;;;;10.60;8.60;;;25.90;62.10;;;;;;5114913;28;20972;-74
2021/06/17 00:28:32;;;;;;;9.00;8.10;;;25.90;62.10;;;;;;5115808;28;20438;-74
2021/06/17 00:30:59;;;;;;;8.27;7.43;;;25.80;62.20;;;;;;5115189;28;20450;-74
2021/06/17 00:33:26;;;;;;;10.40;8.70;;;25.80;62.30;;;;;;5115141;28;20443;-74
2021/06/17 00:35:53;;;;;;;9.37;8.47;;;25.80;62.40;;;;;;5114723;28;21089;-74
2021/06/17 00:38:20;;;;;;;8.90;8.03;;;25.80;62.60;;;;;;5115046;28;20450;-74
2021/06/17 00:40:47;;;;;;;9.40;8.50;;;25.70;62.60;;;;;;5115023;28;20446;-74
2021/06/17 00:43:14;;;;;;;11.60;8.93;;;25.70;62.60;;;;;;5114923;28;20879;-74
2021/06/17 00:45:44;;;;;;;10.70;9.60;;;25.60;62.90;;;;;;5114563;28;20990;-74
2021/06/17 00:48:12;;;;;;;10.17;9.17;;;25.60;63.30;;;;;;5114972;28;20427;-74
2021/06/17 00:50:41;;;;;;;11.07;10.07;;;25.50;63.60;;;;;;5114865;28;20439;-74
2021/06/17 00:53:10;;;;;;;9.90;9.10;;;25.40;63.40;;;;;;5114621;28;20451;-74
2021/06/17 00:55:38;;;;;;;9.80;8.90;;;25.40;63.50;;;;;;5114669;28;20459;-74
2021/06/17 00:58:05;;;;;;;9.47;8.60;;;25.40;63.50;;;;;;5114394;28;20986;-74
2021/06/17 01:00:31;;;;;;;10.47;9.33;;;25.40;63.60;;;;;;5114686;28;20481;-74
2021/06/17 01:03:00;;;;;;;11.50;9.93;;;25.40;63.60;;;;;;5114537;28;20470;-74
2021/06/17 01:05:27;;;;;;;9.53;8.67;;;25.30;63.70;;;;;;5114474;28;20489;-74
2021/06/17 01:08:05;;;;;;;9.97;9.07;;;25.30;63.90;;;;;;5114525;28;20443;-74
2021/06/17 01:10:40;;;;;;;11.13;9.40;;;25.20;64.00;;;;;;5114514;28;20423;-74
2021/06/17 01:13:13;;;;;;;13.67;9.37;;;25.20;64.10;;;;;;5114437;28;20415;-74
2021/06/17 01:15:45;;;;;;;10.40;9.40;;;25.20;64.30;;;;;;5114379;28;20477;-74
2021/06/17 01:18:15;;;;;;;9.47;8.67;;;25.10;64.30;;;;;;5114386;28;20806;-74
2021/06/17 01:20:49;;;;;;;10.20;9.20;;;25.10;64.30;;;;;;5114364;28;20419;-74
2021/06/17 01:23:52;;;;;;;9.83;8.83;;;25.10;64.30;;;;;;5114239;28;20467;-74
2021/06/17 01:26:25;;;;;;;9.77;8.67;;;25.10;64.30;;;;;;5114162;28;20473;-74
2021/06/17 01:28:56;;;;;;;9.40;8.50;;;25.00;64.20;;;;;;5114249;28;20423;-74
2021/06/17 01:31:25;;;;;;;9.33;8.43;;;24.90;64.00;;;;;;5113971;28;20449;-74
2021/06/17 01:33:54;;;;;;;9.60;8.10;;;24.90;63.70;;;;;;5114090;28;20449;-74
2021/06/17 01:36:25;;;;;;;9.27;8.37;;;24.90;63.50;;;;;;5113997;28;20459;-74
2021/06/17 01:38:56;;;;;;;9.17;8.30;;;24.80;63.50;;;;;;5114162;28;20431;-74
2021/06/17 01:41:25;;;;;;;8.80;7.90;;;24.80;63.60;;;;;;5113724;28;20777;-74
2021/06/17 01:43:54;;;;;;;8.90;8.00;;;24.80;63.60;;;;;;5113920;28;20475;-74
2021/06/17 01:46:21;;;;;;;9.77;8.87;;;24.80;63.70;;;;;;5113880;28;20465;-74
2021/06/17 01:48:53;;;;;;;12.10;8.37;;;24.80;63.80;;;;;;5113933;28;20442;-74
2021/06/17 01:51:21;;;;;;;14.23;9.50;;;24.70;63.70;;;;;;5113984;28;20848;-74
2021/06/17 01:53:49;;;;;;;8.70;7.90;;;24.70;63.80;;;;;;5113586;28;20454;-74
2021/06/17 01:56:19;;;;;;;8.13;7.43;;;24.70;64.00;;;;;;5113511;28;20463;-74
2021/06/17 01:58:47;;;;;;;8.73;7.73;;;24.70;64.10;;;;;;5113772;28;20955;-74
2021/06/17 02:01:16;;;;;;;9.43;8.13;;;24.70;63.90;;;;;;5113826;28;20439;-74
2021/06/17 02:03:44;;;;;;;8.57;7.73;;;24.60;63.70;;;;;;5113710;28;20470;-74
2021/06/17 02:06:12;;;;;;;9.60;7.70;;;24.60;63.60;;;;;;5113736;28;20476;-74
2021/06/17 02:08:39;;;;;;;9.83;7.53;;;24.60;63.70;;;;;;5113730;28;20458;-74
2021/06/17 02:11:06;;;;;;;8.60;7.77;;;24.50;63.80;;;;;;5113653;28;20435;-74
2021/06/17 02:13:34;;;;;;;8.70;7.87;;;24.50;64.70;;;;;;5113929;28;20431;-74
2021/06/17 02:16:05;;;;;;;8.17;7.40;;;24.50;63.90;;;;;;5113614;28;20477;-74
2021/06/17 02:18:35;;;;;;;12.00;9.10;;;24.40;63.90;;;;;;5113389;28;20808;-74
2021/06/17 02:21:02;;;;;;;9.27;8.37;;;24.40;63.70;;;;;;5113642;28;20446;-74
2021/06/17 02:23:32;;;;;;;8.77;7.87;;;24.30;63.60;;;;;;5113528;28;20489;-74
2021/06/17 02:26:00;;;;;;;11.10;8.20;;;24.30;63.90;;;;;;5113513;28;20462;-74
2021/06/17 02:28:29;;;;;;;7.40;6.70;;;24.30;64.10;;;;;;5113559;28;20446;-74
2021/06/17 02:31:02;;;;;;;8.07;7.30;;;24.30;64.20;;;;;;5113261;28;20446;-74
2021/06/17 02:33:32;;;;;;;8.83;7.23;;;24.30;64.10;;;;;;5113531;28;20422;-74
2021/06/17 02:36:01;;;;;;;7.10;6.53;;;24.30;63.80;;;;;;5113475;28;20521;-74
2021/06/17 02:38:31;;;;;;;7.90;7.20;;;24.30;63.70;;;;;;5113546;28;20529;-74
2021/06/17 02:41:03;;;;;;;7.67;6.00;;;24.30;63.60;;;;;;5113204;28;20825;-74
2021/06/17 02:43:31;;;;;;;7.37;6.77;;;24.30;63.50;;;;;;5114200;28;20462;-74
2021/06/17 02:45:57;;;;;;;6.67;6.07;;;24.30;63.20;;;;;;5117206;28;20539;-74
2021/06/17 02:48:24;;;;;;;7.40;6.70;;;24.30;63.10;;;;;;5117243;28;20446;-74
2021/06/17 02:50:52;;;;;;;8.53;7.10;;;24.20;63.00;;;;;;5117445;28;20439;-74
2021/06/17 02:53:21;;;;;;;7.03;6.40;;;24.20;62.90;;;;;;5117024;28;20450;-73
2021/06/17 02:55:49;;;;;;;6.33;5.73;;;24.20;63.00;;;;;;5117040;28;20468;-73
2021/06/17 02:58:26;;;;;;;7.40;6.00;;;24.20;63.20;;;;;;5116742;28;20435;-73
2021/06/17 03:00:58;;;;;;;6.73;5.63;;;24.20;63.20;;;;;;5117045;28;20427;-73
2021/06/17 03:03:32;;;;;;;6.90;6.20;;;24.20;63.00;;;;;;5117455;28;20463;-74
2021/06/17 03:06:06;;;;;;;6.83;6.00;;;24.20;63.20;;;;;;5116840;28;20470;-73
2021/06/17 03:08:38;;;;;;;8.33;6.10;;;24.20;63.00;;;;;;5116892;28;20445;-74
2021/06/17 03:11:09;;;;;;;9.90;5.87;;;24.20;62.70;;;;;;5116883;28;20431;-73
2021/06/17 03:13:40;;;;;;;6.53;5.93;;;24.10;62.60;;;;;;5117024;28;20419;-73
2021/06/17 03:16:09;;;;;;;8.07;5.73;;;24.10;62.60;;;;;;5116641;28;20474;-73
2021/06/17 03:18:38;;;;;;;7.63;6.10;;;24.10;62.60;;;;;;5116862;28;20447;-74
2021/06/17 03:21:06;;;;;;;6.63;6.00;;;24.00;62.40;;;;;;5116689;28;20434;-74
2021/06/17 03:23:36;;;;;;;7.47;5.87;;;24.00;62.50;;;;;;5116452;28;20486;-74
2021/06/17 03:26:07;;;;;;;7.00;6.40;;;24.00;62.60;;;;;;5116165;28;20880;-73
2021/06/17 03:28:34;;;;;;;6.30;5.70;;;23.90;62.70;;;;;;5116506;28;20423;-73
2021/06/17 03:31:03;;;;;;;7.10;6.50;;;23.90;62.70;;;;;;5116406;28;20447;-73
2021/06/17 03:33:33;;;;;;;6.83;6.20;;;23.80;62.70;;;;;;5116366;28;20435;-74
2021/06/17 03:36:02;;;;;;;9.53;6.40;;;23.80;62.70;;;;;;5116265;28;20550;-73
2021/06/17 03:38:30;;;;;;;6.73;6.13;;;23.80;62.90;;;;;;5116260;28;20476;-73
2021/06/17 03:40:59;;;;;;;6.70;6.10;;;23.80;63.10;;;;;;5116235;28;20446;-73
2021/06/17 03:43:27;;;;;;;6.00;5.40;;;23.70;63.20;;;;;;5115841;28;21000;-73
2021/06/17 03:45:56;;;;;;;8.50;7.10;;;23.70;63.40;;;;;;5116361;28;20458;-73
2021/06/17 03:48:23;;;;;;;7.53;6.77;;;23.70;63.50;;;;;;5115837;28;20434;-73
2021/06/17 03:50:50;;;;;;;6.77;6.20;;;23.70;63.60;;;;;;5116080;28;20450;-74
2021/06/17 03:53:20;;;;;;;6.83;6.23;;;23.70;63.70;;;;;;5115884;28;20451;-74
2021/06/17 03:55:47;;;;;;;6.80;6.03;;;23.70;63.90;;;;;;5116160;28;20473;-74
2021/06/17 03:58:15;;;;;;;8.20;6.30;;;23.70;63.90;;;;;;5115852;28;20427;-74
2021/06/17 04:00:43;;;;;;;7.80;6.63;;;23.70;64.00;;;;;;5115840;28;20434;-74
2021/06/17 04:03:11;;;;;;;7.23;6.60;;;23.60;64.90;;;;;;5115741;28;20482;-73
2021/06/17 04:05:39;;;;;;;7.30;6.67;;;23.60;64.20;;;;;;5115738;28;20515;-73
2021/06/17 04:08:09;;;;;;;7.10;5.87;;;23.60;64.50;;;;;;5115625;28;20439;-75
2021/06/17 04:10:36;;;;;;;8.37;7.17;;;23.70;64.80;;;;;;5115579;28;20463;-74
2021/06/17 04:13:03;;;;;;;8.57;6.60;;;23.70;65.00;;;;;;5115601;28;20443;-73
2021/06/17 04:15:33;;;;;;;7.87;6.67;;;23.70;65.20;;;;;;5115163;28;20458;-74
2021/06/17 04:18:01;;;;;;;6.93;6.20;;;23.70;65.20;;;;;;5115478;28;20454;-73
2021/06/17 04:20:32;;;;;;;7.43;6.63;;;23.70;65.40;;;;;;5115445;28;20454;-73
2021/06/17 04:23:00;;;;;;;7.20;6.53;;;23.80;65.50;;;;;;5115333;28;20434;-73
2021/06/17 04:25:27;;;;;;;7.67;6.83;;;23.80;65.60;;;;;;5115546;28;20463;-73
2021/06/17 04:27:57;;;;;;;9.40;6.93;;;23.80;65.60;;;;;;5114935;28;20955;-73
2021/06/17 04:30:26;;;;;;;6.90;6.30;;;23.80;65.70;;;;;;5115545;28;20449;-73
2021/06/17 04:32:56;;;;;;;8.00;7.23;;;23.80;65.90;;;;;;5115240;28;20427;-74
2021/06/17 04:35:24;;;;;;;8.30;7.50;;;23.80;65.90;;;;;;5115147;28;20455;-73
2021/06/17 04:37:52;;;;;;;7.53;6.83;;;23.80;66.10;;;;;;5115102;28;20462;-73
2021/06/17 04:40:21;;;;;;;10.67;8.20;;;23.80;66.50;;;;;;5114928;28;20506;-74
2021/06/17 04:42:50;;;;;;;8.53;7.73;;;23.90;67.40;;;;;;5115141;28;20439;-73
2021/06/17 04:45:17;;;;;;;8.03;7.33;;;23.90;67.10;;;;;;5116903;28;20498;-73
2021/06/17 04:47:49;;;;;;;9.30;8.30;;;23.90;67.30;;;;;;5116240;28;20438;-73
2021/06/17 04:50:18;;;;;;;7.97;7.17;;;23.90;67.40;;;;;;5114932;28;20431;-74
2021/06/17 04:53:09;;;;;;;11.30;8.07;;;24.00;67.70;;;;;;5114641;28;20470;-74
2021/06/17 04:55:40;;;;;;;7.37;6.77;;;24.00;67.60;;;;;;5159381;22;20825;-73
2021/06/17 04:58:07;;;;;;;9.37;7.37;;;24.10;67.80;;;;;;5114371;28;20901;-73
2021/06/17 05:00:34;;;;;;;10.17;7.47;;;24.20;67.50;;;;;;5114435;28;20454;-73
2021/06/17 05:03:01;;;;;;;13.67;7.43;;;24.30;67.50;;;;;;5114646;28;20446;-73
2021/06/17 05:05:29;;;;;;;8.10;7.40;;;24.40;67.20;;;;;;5114761;28;20482;-73
2021/06/17 05:10:49;;;;;;;12.13;8.33;;;24.60;65.10;;;;;;5113595;28;20416;-73
2021/06/17 05:13:16;;;;;;;11.87;7.60;;;24.80;64.10;;;;;;5114635;28;20427;-73
2021/06/17 05:15:43;;;;;;;9.70;7.53;;;24.90;62.10;;;;;;5116280;28;20459;-73
2021/06/17 05:18:09;;;;;;;8.03;7.33;;;24.90;61.90;;;;;;5114680;28;20474;-73
2021/06/17 05:20:38;;;;;;;7.63;6.93;;;25.00;62.80;;;;;;5114546;28;20889;-73
2021/06/17 05:23:05;;;;;;;9.10;7.43;;;25.10;63.20;;;;;;5114401;28;20442;-73
2021/06/17 05:25:32;;;;;;;7.23;6.50;;;25.20;63.60;;;;;;5114155;28;20494;-73
2021/06/17 05:27:59;;;;;;;7.80;7.10;;;25.30;63.00;;;;;;5114273;28;20476;-73
2021/06/17 05:30:25;;;;;;;7.93;6.80;;;25.40;62.60;;;;;;5114063;28;20451;-73
2021/06/17 05:32:52;;;;;;;7.40;6.63;;;25.60;62.10;;;;;;5114167;28;20458;-73
2021/06/17 05:35:19;;;;;;;11.97;7.30;;;25.80;61.40;;;;;;5113866;28;20995;-73
2021/06/17 05:37:48;;;;;;;7.20;6.70;;;25.90;60.40;;;;;;5114093;28;20454;-73
2021/06/17 05:40:15;;;;;;;7.60;6.90;;;26.10;59.50;;;;;;5114174;28;20474;-73
2021/06/17 05:42:41;;;;;;;7.70;7.00;;;26.20;58.70;;;;;;5113980;28;20451;-73
2021/06/17 05:45:09;;;;;;;9.03;7.27;;;26.40;58.60;;;;;;5113929;28;20540;-73
2021/06/17 05:47:37;;;;;;;7.13;6.53;;;26.50;58.30;;;;;;5113988;28;20447;-73
2021/06/17 05:50:05;;;;;;;7.90;7.10;;;26.60;58.20;;;;;;5113972;28;20867;-73
2021/06/17 05:52:32;;;;;;;8.07;7.40;;;26.70;58.10;;;;;;5113941;28;20447;-73
2021/06/17 05:55:00;;;;;;;7.80;7.10;;;26.80;58.00;;;;;;5113736;28;20474;-73
2021/06/17 05:57:27;;;;;;;7.40;6.73;;;26.90;57.70;;;;;;5113931;28;20807;-73
2021/06/17 05:59:53;;;;;;;8.70;7.40;;;27.00;57.60;;;;;;5113990;28;20832;-73
2021/06/17 06:02:23;;;;;;;7.80;6.73;;;27.10;57.20;;;;;;5113538;28;20808;-73
2021/06/17 06:04:50;;;;;;;8.13;7.40;;;27.10;57.10;;;;;;5113773;28;20482;-73
2021/06/17 06:07:17;;;;;;;7.83;7.03;;;27.20;57.00;;;;;;5113847;28;20438;-73
2021/06/17 06:09:44;;;;;;;8.83;8.00;;;27.20;57.00;;;;;;5113793;28;20443;-73
2021/06/17 06:12:14;;;;;;;9.30;6.77;;;27.30;56.80;;;;;;5113749;28;20445;-74
2021/06/17 06:14:41;;;;;;;13.17;8.30;;;27.30;56.20;;;;;;5113852;28;20490;-74
2021/06/17 06:17:08;;;;;;;15.70;7.80;;;27.30;55.80;;;;;;5113798;28;20449;-73
2021/06/17 06:19:35;;;;;;;10.00;7.70;;;27.30;55.40;;;;;;5116157;28;20459;-73
2021/06/17 06:22:04;;;;;;;9.43;7.20;;;27.30;56.10;;;;;;5117832;28;20500;-73
2021/06/17 06:24:32;;;;;;;7.27;6.33;;;27.40;56.60;;;;;;5117669;28;20487;-73
2021/06/17 06:27:00;;;;;;;8.77;7.20;;;27.50;56.60;;;;;;5118101;28;20500;-73
2021/06/17 06:29:28;;;;;;;7.87;7.07;;;27.50;55.90;;;;;;5117479;28;20829;-73
2021/06/17 06:31:55;;;;;;;7.17;6.57;;;27.60;55.70;;;;;;5117596;28;20426;-73
2021/06/17 06:34:22;;;;;;;6.87;5.90;;;27.60;55.90;;;;;;5117430;28;20447;-73
2021/06/17 06:36:49;;;;;;;8.97;5.97;;;27.70;55.90;;;;;;5117494;28;20449;-73
2021/06/17 06:39:16;;;;;;;7.73;6.53;;;27.90;55.60;;;;;;5117073;28;20439;-73
2021/06/17 06:41:43;;;;;;;7.60;7.00;;;27.90;54.40;;;;;;5117472;28;20427;-73
2021/06/17 06:44:10;;;;;;;9.43;7.00;;;28.00;54.10;;;;;;5117262;28;20494;-73
2021/06/17 06:46:38;;;;;;;6.93;6.30;;;28.10;54.00;;;;;;5116899;28;20531;-73
2021/06/17 06:49:05;;;;;;;9.00;6.60;;;28.20;54.10;;;;;;5117251;28;20442;-72
2021/06/17 06:51:35;;;;;;;6.87;6.17;;;28.40;53.70;;;;;;5117284;28;20446;-72
2021/06/17 06:54:02;;;;;;;7.90;6.33;;;28.40;52.70;;;;;;5117378;28;20474;-72
2021/06/17 06:56:29;;;;;;;8.70;7.00;;;28.50;52.20;;;;;;5116866;28;20902;-73
2021/06/17 06:58:56;;;;;;;7.80;6.27;;;28.60;50.80;;;;;;5116830;28;20473;-73
2021/06/17 07:01:23;;;;;;;10.67;7.13;;;28.60;51.40;;;;;;5117091;28;20427;-73
2021/06/17 07:03:51;;;;;;;10.63;6.60;;;28.70;52.30;;;;;;5116740;28;20427;-73
2021/06/17 07:06:18;;;;;;;7.13;6.43;;;28.90;52.30;;;;;;5116722;28;20481;-73
2021/06/17 07:08:44;;;;;;;6.50;5.90;;;29.00;52.10;;;;;;5116454;28;20442;-73
2021/06/17 07:11:11;;;;;;;7.27;6.20;;;29.20;52.30;;;;;;5116673;28;20764;-73
2021/06/17 07:13:38;;;;;;;7.27;6.63;;;29.40;51.00;;;;;;5116446;28;20814;-73
2021/06/17 07:16:05;;;;;;;11.70;6.20;;;29.60;50.40;;;;;;5116594;28;20477;-73
2021/06/17 07:18:33;;;;;;;7.63;5.80;;;29.80;48.10;;;;;;5116718;28;20435;-73
2021/06/17 07:21:01;;;;;;;7.43;6.03;;;29.70;47.80;;;;;;5116717;28;20454;-73
2021/06/17 07:23:29;;;;;;;7.20;5.53;;;29.70;48.30;;;;;;5116666;28;20443;-73
2021/06/17 07:25:55;;;;;;;14.13;6.70;;;29.60;48.50;;;;;;5116147;28;20487;-73
2021/06/17 07:28:22;;;;;;;9.30;6.17;;;29.60;48.00;;;;;;5116583;28;20803;-73
2021/06/17 07:30:49;;;;;;;6.77;5.60;;;29.60;47.30;;;;;;5116084;28;20442;-73
2021/06/17 07:33:16;;;;;;;6.00;4.90;;;29.70;48.20;;;;;;5116431;28;20447;-73
2021/06/17 07:35:43;;;;;;;7.00;5.53;;;29.80;49.10;;;;;;5116340;28;20467;-73
2021/06/17 07:38:11;;;;;;;12.27;6.53;;;30.10;49.30;;;;;;5116015;28;20823;-73
2021/06/17 07:40:40;;;;;;;9.10;6.07;;;30.30;48.20;;;;;;5116313;28;20446;-73
2021/06/17 07:43:07;;;;;;;9.10;6.00;;;30.50;47.70;;;;;;5116430;28;20447;-73
2021/06/17 07:45:35;;;;;;;7.30;5.97;;;30.70;47.40;;;;;;5116141;28;20507;-74
2021/06/17 07:48:02;;;;;;;6.80;6.10;;;30.80;47.30;;;;;;5116164;28;20447;-73
2021/06/17 07:50:30;;;;;;;7.03;5.93;;;31.10;47.80;;;;;;5116036;28;20451;-73
2021/06/17 07:52:57;;;;;;;10.03;7.00;;;31.30;46.90;;;;;;5116087;28;20531;-73
2021/06/17 07:55:25;;;;;;;7.50;5.73;;;31.50;45.60;;;;;;5115817;28;20485;-74
2021/06/17 07:57:52;;;;;;;6.53;5.07;;;31.60;44.60;;;;;;5116029;28;20431;-73
2021/06/17 08:00:19;;;;;;;7.80;6.07;;;31.70;43.00;;;;;;5117647;28;20479;-73
2021/06/17 08:02:46;;;;;;;6.70;5.80;;;31.80;42.40;;;;;;5117220;28;20434;-73
2021/06/17 08:05:13;;;;;;;6.70;6.10;;;31.80;42.10;;;;;;5116128;28;20846;-73
2021/06/17 08:07:40;;;;;;;7.17;6.10;;;31.90;43.10;;;;;;5115903;28;20450;-73
2021/06/17 08:10:08;;;;;;;6.30;5.80;;;32.00;41.70;;;;;;5115696;28;20447;-73
2021/06/17 08:12:36;;;;;;;9.40;5.40;;;32.00;42.60;;;;;;5115287;28;20955;-73
2021/06/17 08:15:03;;;;;;;5.57;4.90;;;32.00;40.30;;;;;;5115574;28;20489;-74
2021/06/17 08:17:29;;;;;;;13.17;4.90;;;32.00;42.20;;;;;;5115583;28;20438;-73
2021/06/17 08:19:56;;;;;;;6.90;5.17;;;32.20;41.90;;;;;;5115544;28;20462;-73
2021/06/17 08:22:25;;;;;;;5.50;5.00;;;32.40;41.40;;;;;;5115591;28;20446;-73
2021/06/17 08:24:52;;;;;;;5.70;5.10;;;32.60;40.80;;;;;;5117493;28;20564;-74
2021/06/17 08:27:19;;;;;;;8.43;5.20;;;32.80;41.40;;;;;;5116581;28;20446;-74
2021/06/17 08:29:47;;;;;;;5.87;4.80;;;32.90;41.50;;;;;;5115429;28;20506;-73
2021/06/17 08:32:14;;;;;;;8.60;5.80;;;33.00;39.80;;;;;;5115112;28;20430;-73
2021/06/17 08:34:41;;;;;;;10.90;5.20;;;32.90;40.60;;;;;;5115248;28;20972;-74
2021/06/17 08:37:08;;;;;;;7.00;5.50;;;32.80;41.10;;;;;;5115121;28;20446;-74
2021/06/17 08:39:36;;;;;;;7.50;5.13;;;32.60;40.90;;;;;;5115395;28;20451;-74
2021/06/17 08:42:04;;;;;;;5.40;5.00;;;32.70;39.70;;;;;;5114517;28;20427;-73
2021/06/17 08:44:32;;;;;;;6.33;5.00;;;32.80;39.60;;;;;;5114959;28;20446;-74
2021/06/17 08:47:00;;;;;;;6.27;4.60;;;33.00;39.80;;;;;;5115022;28;20457;-73
2021/06/17 08:49:27;;;;;;;6.30;4.80;;;33.20;37.90;;;;;;5114702;28;20525;-73
2021/06/17 08:51:58;;;;;;;9.80;5.30;;;33.40;37.50;;;;;;5114932;28;20963;-73
2021/06/17 08:54:25;;;;;;;6.07;4.77;;;33.70;37.40;;;;;;5114735;28;20623;-74
2021/06/17 08:56:53;;;;;;;5.90;5.20;;;34.00;37.70;;;;;;5114888;28;20434;-74
2021/06/17 08:59:20;;;;;;;8.87;5.20;;;34.30;36.40;;;;;;5114884;28;20450;-74
2021/06/17 09:01:56;;;;;;;5.83;5.10;;;34.40;35.60;;;;;;5114925;28;20427;-74
2021/06/17 09:04:27;;;;;;;7.13;5.40;;;34.50;36.40;;;;;;5114561;28;20923;-74
2021/06/17 09:07:05;;;;;;;7.67;5.40;;;34.50;36.40;;;;;;5114691;28;20414;-74
2021/06/17 09:09:38;;;;;;;6.67;5.00;;;34.70;38.30;;;;;;5114733;28;20434;-73
2021/06/17 09:12:06;;;;;;;7.77;5.17;;;34.90;35.50;;;;;;5114727;28;20418;-73
2021/06/17 09:14:33;;;;;;;13.47;5.53;;;35.00;35.30;;;;;;5114014;28;20813;-74
2021/06/17 09:17:03;;;;;;;5.10;4.63;;;35.30;35.90;;;;;;5114384;28;20446;-73
2021/06/17 09:19:40;;;;;;;7.73;4.90;;;35.50;36.30;;;;;;5114426;28;20446;-73
2021/06/17 09:22:08;;;;;;;7.20;5.57;;;35.80;34.40;;;;;;5114448;28;20437;-74
2021/06/17 09:24:36;;;;;;;6.20;5.03;;;36.00;32.40;;;;;;5114221;28;20435;-74
2021/06/17 09:27:25;;;;;;;5.73;5.07;;;36.10;33.10;;;;;;5114675;28;20445;-73
2021/06/17 09:29:55;;;;;;;5.30;4.80;;;36.40;34.60;;;;;;5114211;28;20438;-74
2021/06/17 09:32:23;;;;;;;5.80;4.97;;;36.70;32.80;;;;;;5114210;28;20478;-73
2021/06/17 09:34:52;;;;;;;5.50;4.60;;;37.00;33.50;;;;;;5114225;28;20469;-74
2021/06/17 09:37:33;;;;;;;5.60;5.10;;;37.30;32.20;;;;;;5113879;28;20503;-74
2021/06/17 09:40:00;;;;;;;7.10;4.73;;;37.70;30.90;;;;;;5114185;28;20446;-74
2021/06/17 09:42:31;;;;;;;5.33;4.83;;;38.00;30.40;;;;;;5113947;28;20461;-74
2021/06/17 09:45:00;;;;;;;7.33;4.80;;;38.10;30.30;;;;;;5114003;28;20224;-74
2021/06/17 09:47:33;;;;;;;5.30;4.20;;;38.20;30.90;;;;;;5113781;28;20769;-74
2021/06/17 09:50:20;;;;;;;5.77;5.20;;;38.40;29.80;;;;;;5114257;28;20196;-74
2021/06/17 09:52:48;;;;;;;6.23;5.10;;;38.50;28.20;;;;;;5113568;28;20642;-73
2021/06/17 09:55:35;;;;;;;6.70;5.43;;;38.50;28.50;;;;;;5113569;28;20999;-74
2021/06/17 09:58:01;;;;;;;6.80;4.80;;;38.60;28.50;;;;;;5113969;28;20185;-74
2021/06/17 10:00:28;;;;;;;7.03;5.27;;;38.60;28.00;;;;;;5113938;28;20185;-74
2021/06/17 10:02:55;;;;;;;5.37;4.97;;;38.60;28.00;;;;;;5113945;28;20203;-74
2021/06/17 10:05:31;;;;;;;7.88;4.68;;;38.80;29.80;;;;;;5113764;28;20224;-74
2021/06/17 10:07:58;;;;;;;5.72;5.10;;;39.20;29.10;;;;;;5114014;28;20184;-73
2021/06/17 10:10:30;;;;;;;6.10;5.10;;;39.50;29.80;;;;;;5114098;28;20268;-74
2021/06/17 10:12:58;;;;;;;7.05;5.13;;;39.90;30.00;;;;;;5113706;28;20189;-74
2021/06/17 10:15:26;;;;;;;5.45;5.00;;;40.40;29.90;;;;;;5113857;28;20248;-74
2021/06/17 10:17:53;;;;;;;12.35;5.63;;;40.80;28.90;;;;;;5113899;28;20226;-74
2021/06/17 10:20:19;;;;;;;5.18;4.60;;;41.30;28.50;;;;;;5113824;28;20196;-74
2021/06/17 10:22:51;;;;;;;5.78;4.38;;;41.70;28.30;;;;;;5113872;28;20188;-74
2021/06/17 10:25:23;;;;;;;6.63;4.80;;;42.10;28.00;;;;;;5113788;28;20224;-75
2021/06/17 10:27:51;;;;;;;4.78;4.00;;;42.40;27.00;;;;;;5113641;28;20189;-74
2021/06/17 10:30:19;;;;;;;5.50;4.88;;;42.80;26.80;;;;;;5113397;28;20303;-74
2021/06/17 10:32:50;;;;;;;6.80;3.88;;;43.20;26.20;;;;;;5113980;28;20196;-74
2021/06/17 10:35:27;;;;;;;5.78;4.65;;;43.50;25.20;;;;;;5113495;28;20702;-74
2021/06/17 10:37:56;;;;;;;9.35;4.75;;;44.00;25.20;;;;;;5113639;28;20189;-74
2021/06/17 10:40:26;;;;;;;5.05;4.38;;;44.40;24.50;;;;;;5113615;28;20615;-74
2021/06/17 10:42:55;;;;;;;4.82;4.32;;;44.90;24.50;;;;;;5113195;28;20639;-74
2021/06/17 10:45:35;;;;;;;3.80;3.50;;;45.30;23.40;;;;;;5113384;28;20236;-75
2021/06/17 10:48:07;;;;;;;4.20;3.78;;;45.80;23.60;;;;;;5114046;28;20185;-74
2021/06/17 10:51:05;;;;;;;5.75;3.85;;;46.20;23.10;;;;;;5113144;28;20660;-74
2021/06/17 10:53:51;;;;;;;8.55;4.15;;;46.90;22.30;;;;;;5113037;28;20209;-74
2021/06/17 10:56:20;;;;;;;17.08;4.45;;;47.20;20.40;;;;;;5112943;28;20224;-74
2021/06/17 10:59:06;;;;;;;6.05;4.07;;;47.50;20.00;;;;;;5113104;28;20212;-74
2021/06/17 11:01:39;;;;;;;4.15;3.85;;;47.70;19.20;;;;;;5113291;28;20185;-74
2021/06/17 11:04:36;;;;;;;7.10;3.63;;;48.00;19.20;;;;;;5113306;28;20272;-74
2021/06/17 11:07:10;;;;;;;6.10;4.07;;;48.30;19.80;;;;;;5116799;28;20220;-74
2021/06/17 11:09:47;;;;;;;4.78;3.35;;;48.10;18.30;;;;;;5117114;28;20207;-74
2021/06/17 11:12:54;;;;;;;4.40;4.00;;;48.00;18.50;;;;;;5117447;28;20185;-74
2021/06/17 11:15:44;;;;;;;8.43;4.00;;;48.10;18.60;;;;;;5116708;28;20258;-75
2021/06/17 11:18:12;;;;;;;5.63;4.35;;;47.80;17.90;;;;;;5116745;28;20245;-75
2021/06/17 11:20:41;;;;;;;4.50;3.95;;;47.50;18.40;;;;;;5116646;28;20204;-74
2021/06/17 11:23:08;;;;;;;5.45;4.38;;;47.40;19.00;;;;;;5116582;28;20200;-74
2021/06/17 11:25:40;;;;;;;4.15;3.70;;;47.40;18.40;;;;;;5116420;28;20235;-75
2021/06/17 11:28:09;;;;;;;10.88;4.38;;;47.30;18.60;;;;;;5116562;28;20184;-74
2021/06/17 11:31:03;;;;;;;5.60;3.92;;;47.50;18.50;;;;;;5116432;28;20196;-74
2021/06/17 11:33:47;;;;;;;5.47;4.35;;;47.20;18.70;;;;;;5093546;28;20200;-74
2021/06/17 11:36:24;;;;;;;4.50;4.18;;;46.30;19.50;;;;;;5116028;28;20663;-75
2021/06/17 11:38:53;;;;;;;9.02;4.45;;;45.30;20.40;;;;;;5116044;28;20718;-74
2021/06/17 11:41:25;;;;;;;7.05;4.30;;;44.50;21.30;;;;;;5115967;28;20200;-74
2021/06/17 11:43:56;;;;;;;6.60;4.68;;;43.60;22.00;;;;;;5116232;28;20213;-74
2021/06/17 11:46:25;;;;;;;5.43;4.93;;;42.90;23.00;;;;;;5116076;28;20228;-74
2021/06/17 11:48:54;;;;;;;5.05;4.65;;;42.40;23.70;;;;;;5116137;28;20207;-74
2021/06/17 11:51:21;;;;;;;7.03;4.55;;;42.00;24.30;;;;;;5116039;28;20204;-74
2021/06/17 11:53:50;;;;;;;5.45;5.03;;;41.70;24.60;;;;;;5116037;28;20207;-74
2021/06/17 11:56:31;;;;;;;6.32;5.20;;;41.40;25.10;;;;;;5115520;28;20603;-74
2021/06/17 11:59:16;;;;;;;7.32;4.88;;;41.20;26.30;;;;;;5116293;28;20192;-74
2021/06/17 12:02:07;;;;;;;6.63;6.00;;;41.30;26.10;;;;;;5115938;28;20184;-74
2021/06/17 12:04:42;;;;;;;6.95;4.82;;;41.50;25.30;;;;;;5115846;28;20196;-74
2021/06/17 12:07:08;;;;;;;7.55;5.20;;;41.20;27.10;;;;;;5115712;28;20215;-74
2021/06/17 12:09:35;;;;;;;5.45;4.95;;;41.10;25.10;;;;;;5115813;28;20184;-74
2021/06/17 12:12:18;;;;;;;14.05;5.50;;;41.20;26.40;;;;;;5115675;28;20207;-74
2021/06/17 12:14:45;;;;;;;5.93;5.38;;;40.90;26.90;;;;;;5115312;28;20724;-74
2021/06/17 12:17:12;;;;;;;6.93;5.72;;;40.50;26.80;;;;;;5114456;28;20196;-74
2021/06/17 12:19:39;;;;;;;7.78;6.07;;;40.30;27.70;;;;;;5115602;28;20230;-74
2021/06/17 12:22:08;;;;;;;6.82;6.10;;;40.10;29.40;;;;;;5115223;28;20193;-74
2021/06/17 12:24:36;;;;;;;11.13;5.60;;;40.10;31.20;;;;;;5115381;28;20249;-75
2021/06/17 12:27:05;;;;;;;8.07;5.60;;;40.90;30.20;;;;;;5115300;28;20231;-74
2021/06/17 12:29:33;;;;;;;7.60;5.78;;;41.70;27.50;;;;;;5115350;28;20235;-74
2021/06/17 12:32:01;;;;;;;6.68;6.07;;;41.90;26.20;;;;;;5115365;28;20196;-74
2021/06/17 12:34:39;;;;;;;7.85;5.75;;;42.20;26.50;;;;;;5115134;28;20211;-74
2021/06/17 12:37:08;;;;;;;9.88;5.32;;;42.80;27.20;;;;;;5115283;28;20219;-74
2021/06/17 12:39:36;;;;;;;8.50;5.10;;;43.30;24.10;;;;;;5115203;28;20201;-74
2021/06/17 12:42:09;;;;;;;11.00;5.43;;;43.90;24.30;;;;;;5115120;28;20250;-74
2021/06/17 12:44:40;;;;;;;5.53;5.10;;;44.20;24.10;;;;;;5115030;28;20192;-75
2021/06/17 12:47:10;;;;;;;6.88;5.50;;;44.40;22.90;;;;;;5115048;28;20295;-74
2021/06/17 12:52:41;;;;;;;5.40;4.90;;;44.50;21.90;;;;;;5032155;28;20218;-74
2021/06/17 12:55:10;;;;;;;5.78;5.05;;;44.90;23.40;;;;;;5094801;28;20751;-75
2021/06/17 12:57:37;;;;;;;5.82;5.20;;;45.50;22.80;;;;;;5114842;28;20193;-75
2021/06/17 13:00:16;;;;;;;7.55;5.63;;;45.50;21.60;;;;;;5114477;28;20200;-75
2021/06/17 13:02:48;;;;;;;7.20;5.40;;;45.50;21.80;;;;;;5114770;28;20184;-74
2021/06/17 13:08:44;;;;;;;6.10;4.70;;;45.70;21.10;;;;;;5114049;28;20200;-75